createdAt,value
2019-03-29T00:00:22.481Z,14.77
2019-03-29T00:02:52.353Z,13.70
2019-03-29T00:05:22.090Z,16.37
2019-03-29T00:07:51.894Z,19.20
2019-03-29T00:10:21.656Z,23.63
2019-03-29T00:12:52.191Z,15.13
2019-03-29T00:15:21.939Z,20.80
2019-03-29T00:17:51.710Z,20.83
2019-03-29T00:20:21.420Z,17.40
2019-03-29T00:22:51.154Z,23.37
2019-03-29T00:25:20.980Z,22.10
2019-03-29T00:27:50.718Z,22.97
2019-03-29T00:30:20.459Z,18.23
2019-03-29T00:32:50.213Z,23.77
2019-03-29T00:35:20.061Z,15.97
2019-03-29T00:37:53.766Z,17.70
2019-03-29T00:40:21.544Z,19.50
2019-03-29T00:42:51.370Z,26.90
2019-03-29T00:45:21.180Z,19.87
2019-03-29T00:47:50.905Z,20.17
2019-03-29T00:50:20.763Z,16.20
2019-03-29T00:55:32.850Z,22.00
2019-03-29T00:58:02.576Z,17.77
2019-03-29T01:00:33.662Z,21.30
2019-03-29T01:03:03.721Z,13.97
2019-03-29T01:05:33.552Z,26.03
2019-03-29T01:08:08.187Z,18.07
2019-03-29T01:10:34.898Z,19.50
2019-03-29T01:13:04.662Z,22.60
2019-03-29T01:15:34.327Z,22.67
2019-03-29T01:18:04.079Z,19.93
2019-03-29T01:20:33.922Z,20.47
2019-03-29T01:23:03.659Z,17.30
2019-03-29T01:25:33.325Z,21.47
2019-03-29T01:28:03.085Z,29.57
2019-03-29T01:30:32.755Z,19.70
2019-03-29T01:33:02.476Z,18.80
2019-03-29T01:35:32.132Z,28.97
2019-03-29T01:38:01.833Z,26.50
2019-03-29T01:40:31.561Z,18.33
2019-03-29T01:43:01.341Z,23.03
2019-03-29T01:45:31.089Z,17.03
2019-03-29T01:48:00.776Z,23.63
2019-03-29T01:50:30.463Z,24.63
2019-03-29T01:53:00.124Z,30.33
2019-03-29T01:55:29.883Z,18.93
2019-03-29T01:57:59.552Z,22.53
2019-03-29T02:00:33.689Z,21.43
2019-03-29T02:03:03.500Z,17.37
2019-03-29T02:05:33.195Z,18.03
2019-03-29T02:08:02.865Z,22.97
2019-03-29T02:10:32.623Z,19.77
2019-03-29T02:13:02.304Z,19.77
2019-03-29T02:15:32.226Z,27.20
2019-03-29T02:18:01.957Z,20.90
2019-03-29T02:20:31.650Z,26.63
2019-03-29T02:23:01.300Z,26.00
2019-03-29T02:25:30.985Z,20.10
2019-03-29T02:28:00.733Z,23.13
2019-03-29T02:30:31.961Z,22.40
2019-03-29T02:33:01.889Z,19.17
2019-03-29T02:35:31.594Z,20.50
2019-03-29T02:38:01.259Z,24.00
2019-03-29T02:40:31.042Z,27.20
2019-03-29T02:43:00.714Z,20.83
2019-03-29T02:45:33.026Z,27.67
2019-03-29T02:48:02.670Z,28.50
2019-03-29T02:50:32.344Z,27.57
2019-03-29T02:53:02.024Z,29.90
2019-03-29T02:55:31.697Z,20.13
2019-03-29T02:58:01.392Z,24.13
2019-03-29T03:00:31.095Z,23.67
2019-03-29T03:03:00.786Z,16.77
2019-03-29T03:05:30.533Z,20.53
2019-03-29T03:08:00.224Z,16.50
2019-03-29T03:10:29.899Z,15.53
2019-03-29T03:12:59.697Z,20.23
2019-03-29T03:15:29.653Z,21.83
2019-03-29T03:17:59.341Z,26.17
2019-03-29T03:20:29.018Z,18.20
2019-03-29T03:22:58.733Z,18.07
2019-03-29T03:25:28.404Z,18.13
2019-03-29T03:27:58.469Z,17.60
2019-03-29T03:30:28.137Z,18.20
2019-03-29T03:32:57.838Z,15.60
2019-03-29T03:35:27.502Z,18.57
2019-03-29T03:37:57.287Z,16.73
2019-03-29T03:40:26.954Z,21.50
2019-03-29T03:42:56.737Z,20.20
2019-03-29T03:45:26.398Z,12.13
2019-03-29T03:47:56.078Z,16.37
2019-03-29T03:50:31.635Z,15.90
2019-03-29T03:53:01.412Z,13.33
2019-03-29T03:55:32.367Z,20.03
2019-03-29T03:58:03.875Z,14.93
2019-03-29T04:00:52.935Z,13.17
2019-03-29T04:03:23.602Z,13.50
2019-03-29T04:05:53.542Z,15.43
2019-03-29T04:08:23.323Z,15.27
2019-03-29T04:10:53.145Z,14.60
2019-03-29T04:13:23.132Z,17.13
2019-03-29T04:15:53.110Z,16.73
2019-03-29T04:18:22.953Z,17.90
2019-03-29T04:20:52.610Z,16.97
2019-03-29T04:23:22.375Z,22.27
2019-03-29T04:25:52.064Z,15.93
2019-03-29T04:28:21.745Z,14.90
2019-03-29T04:30:51.501Z,14.43
2019-03-29T04:33:21.251Z,13.47
2019-03-29T04:35:50.963Z,13.77
2019-03-29T04:38:20.696Z,15.63
2019-03-29T04:40:50.450Z,18.57
2019-03-29T04:43:20.160Z,12.83
2019-03-29T04:45:49.872Z,20.53
2019-03-29T04:48:19.554Z,17.47
2019-03-29T04:50:49.504Z,20.50
2019-03-29T04:53:19.285Z,20.13
2019-03-29T04:55:48.978Z,14.57
2019-03-29T04:58:18.657Z,15.23
2019-03-29T05:00:48.386Z,14.57
2019-03-29T05:03:18.514Z,14.03
2019-03-29T05:05:48.282Z,16.10
2019-03-29T05:08:18.033Z,16.43
2019-03-29T05:10:47.710Z,19.00
2019-03-29T05:13:17.471Z,14.23
2019-03-29T05:15:47.215Z,18.43
2019-03-29T05:18:17.674Z,20.13
2019-03-29T05:20:47.347Z,24.53
2019-03-29T05:23:17.020Z,21.03
2019-03-29T05:25:46.703Z,23.50
2019-03-29T05:28:16.474Z,27.00
2019-03-29T05:30:46.147Z,21.37
2019-03-29T05:33:15.843Z,24.93
2019-03-29T05:35:45.521Z,24.87
2019-03-29T05:38:15.238Z,22.33
2019-03-29T05:40:44.908Z,24.70
2019-03-29T05:43:14.662Z,23.77
2019-03-29T05:45:44.399Z,20.53
2019-03-29T05:48:14.167Z,28.07
2019-03-29T05:50:43.905Z,27.40
2019-03-29T05:53:13.693Z,24.93
2019-03-29T05:55:43.476Z,21.50
2019-03-29T05:58:13.736Z,25.97
2019-03-29T06:00:44.152Z,30.57
2019-03-29T06:03:13.922Z,26.33
2019-03-29T06:05:43.759Z,28.97
2019-03-29T06:08:13.441Z,33.00
2019-03-29T06:10:48.746Z,30.33
2019-03-29T06:13:14.591Z,30.57
2019-03-29T06:15:44.364Z,31.27
2019-03-29T06:18:14.054Z,27.67
2019-03-29T06:20:43.752Z,34.90
2019-03-29T06:23:13.593Z,30.93
2019-03-29T06:25:43.376Z,32.27
2019-03-29T06:28:13.148Z,26.67
2019-03-29T06:30:42.877Z,31.13
2019-03-29T06:33:12.615Z,29.43
2019-03-29T06:35:44.336Z,28.70
2019-03-29T06:38:14.564Z,34.67
2019-03-29T06:40:44.243Z,30.43
2019-03-29T06:43:13.936Z,33.63
2019-03-29T06:45:48.253Z,31.33
2019-03-29T06:48:15.685Z,30.20
2019-03-29T06:50:45.487Z,37.30
2019-03-29T06:53:15.447Z,32.97
2019-03-29T06:55:45.214Z,32.00
2019-03-29T06:58:14.910Z,38.23
2019-03-29T07:00:46.628Z,35.03
2019-03-29T07:03:15.969Z,32.67
2019-03-29T07:05:45.664Z,33.43
2019-03-29T07:08:15.406Z,40.10
2019-03-29T07:10:45.091Z,32.03
2019-03-29T07:13:14.794Z,31.37
2019-03-29T07:15:44.807Z,32.27
2019-03-29T07:18:14.656Z,35.70
2019-03-29T07:20:44.354Z,30.47
2019-03-29T07:23:14.069Z,28.87
2019-03-29T07:25:43.746Z,33.97
2019-03-29T07:28:13.469Z,30.20
2019-03-29T07:30:43.251Z,32.07
2019-03-29T07:33:12.928Z,33.03
2019-03-29T07:35:42.624Z,31.10
2019-03-29T07:38:12.325Z,35.70
2019-03-29T07:40:42.019Z,32.30
2019-03-29T07:43:11.700Z,34.80
2019-03-29T07:45:41.564Z,30.40
2019-03-29T07:48:11.262Z,36.37
2019-03-29T07:50:40.959Z,36.87
2019-03-29T07:53:10.685Z,28.03
2019-03-29T07:55:40.492Z,34.13
2019-03-29T07:58:10.273Z,35.13
2019-03-29T08:00:39.999Z,33.40
2019-03-29T08:03:09.767Z,42.83
2019-03-29T08:05:39.499Z,38.67
2019-03-29T08:08:22.748Z,35.03
2019-03-29T08:10:41.082Z,35.77
2019-03-29T08:13:10.778Z,37.27
2019-03-29T08:15:40.570Z,34.47
2019-03-29T08:18:10.305Z,37.17
2019-03-29T08:20:43.929Z,29.57
2019-03-29T08:23:11.742Z,36.73
2019-03-29T08:25:41.550Z,29.97
2019-03-29T08:28:11.246Z,40.17
2019-03-29T08:30:40.957Z,31.70
2019-03-29T08:33:10.640Z,31.57
2019-03-29T08:35:40.326Z,35.33
2019-03-29T08:38:10.158Z,34.50
2019-03-29T08:40:39.891Z,31.30
2019-03-29T08:43:09.605Z,28.37
2019-03-29T08:45:39.370Z,30.57
2019-03-29T08:48:09.066Z,31.00
2019-03-29T08:50:38.738Z,29.40
2019-03-29T08:53:08.469Z,28.53
2019-03-29T08:55:45.832Z,31.13
2019-03-29T08:58:09.557Z,31.47
2019-03-29T09:00:39.269Z,25.90
2019-03-29T09:03:08.967Z,31.03
2019-03-29T09:05:39.317Z,28.50
2019-03-29T09:08:09.210Z,34.33
2019-03-29T09:10:38.911Z,30.87
2019-03-29T09:13:08.620Z,28.33
2019-03-29T09:15:38.341Z,31.33
2019-03-29T09:18:08.020Z,29.77
2019-03-29T09:20:37.728Z,33.27
2019-03-29T09:23:10.307Z,32.17
2019-03-29T09:25:40.436Z,38.03
2019-03-29T09:28:10.423Z,36.10
2019-03-29T09:30:40.345Z,27.93
2019-03-29T09:33:10.022Z,31.03
2019-03-29T09:35:42.598Z,28.53
2019-03-29T09:38:11.277Z,31.30
2019-03-29T09:40:42.307Z,32.90
2019-03-29T09:43:12.223Z,33.77
2019-03-29T09:45:42.651Z,31.40
2019-03-29T09:48:12.648Z,29.23
2019-03-29T09:50:42.486Z,33.97
2019-03-29T09:53:14.068Z,34.10
2019-03-29T09:55:45.734Z,30.00
2019-03-29T09:58:17.415Z,33.57
2019-03-29T10:00:48.101Z,30.07
2019-03-29T10:03:19.499Z,37.90
2019-03-29T10:05:49.289Z,34.93
2019-03-29T10:08:18.979Z,34.63
2019-03-29T10:10:48.699Z,38.77
2019-03-29T10:13:18.398Z,40.10
2019-03-29T10:15:51.216Z,40.77
2019-03-29T10:18:19.518Z,36.17
2019-03-29T10:20:49.279Z,37.80
2019-03-29T10:23:19.086Z,42.63
2019-03-29T10:25:48.850Z,44.93
2019-03-29T10:28:18.514Z,40.90
2019-03-29T10:30:48.247Z,40.50
2019-03-29T10:33:17.989Z,36.00
2019-03-29T10:35:52.749Z,39.43
2019-03-29T10:38:19.226Z,41.17
2019-03-29T10:40:49.085Z,38.17
2019-03-29T10:43:18.919Z,43.43
2019-03-29T10:45:48.707Z,41.43
2019-03-29T10:48:18.465Z,40.33
2019-03-29T10:50:48.228Z,42.37
2019-03-29T10:53:18.140Z,42.73
2019-03-29T10:55:47.921Z,40.77
2019-03-29T10:58:17.621Z,41.50
2019-03-29T11:00:47.397Z,41.50
2019-03-29T11:03:17.195Z,46.17
2019-03-29T11:05:46.927Z,39.97
2019-03-29T11:08:16.661Z,41.47
2019-03-29T11:10:46.358Z,42.43
2019-03-29T11:13:16.207Z,41.73
2019-03-29T11:15:45.924Z,42.27
2019-03-29T11:18:15.796Z,37.80
2019-03-29T11:20:45.649Z,38.40
2019-03-29T11:23:15.346Z,35.80
2019-03-29T11:25:48.364Z,43.00
2019-03-29T11:28:16.646Z,38.20
2019-03-29T11:30:46.452Z,34.87
2019-03-29T11:33:23.559Z,38.83
2019-03-29T11:35:55.974Z,40.57
2019-03-29T11:38:24.907Z,37.87
2019-03-29T11:40:54.642Z,36.27
2019-03-29T11:43:26.953Z,38.27
2019-03-29T11:45:55.843Z,37.93
2019-03-29T11:48:25.583Z,38.63
2019-03-29T11:50:55.421Z,39.77
2019-03-29T11:53:26.285Z,38.57
2019-03-29T11:55:55.969Z,38.10
2019-03-29T11:58:25.757Z,40.07
2019-03-29T12:00:55.538Z,45.10
2019-03-29T12:03:25.300Z,40.77
2019-03-29T12:05:55.154Z,40.63
2019-03-29T12:08:27.754Z,42.63
2019-03-29T12:10:57.480Z,41.63
2019-03-29T12:13:40.489Z,46.97
2019-03-29T12:15:58.834Z,41.47
2019-03-29T12:18:28.619Z,40.00
2019-03-29T12:20:58.365Z,46.77
2019-03-29T12:23:28.085Z,46.90
2019-03-29T12:25:57.854Z,45.03
2019-03-29T12:28:27.576Z,55.07
2019-03-29T12:30:57.302Z,45.47
2019-03-29T12:33:27.111Z,46.60
2019-03-29T12:35:56.796Z,47.40
2019-03-29T12:38:26.514Z,49.20
2019-03-29T12:40:56.215Z,46.30
2019-03-29T12:43:25.929Z,47.17
2019-03-29T12:45:55.617Z,47.67
2019-03-29T12:48:25.328Z,46.70
2019-03-29T12:50:56.661Z,40.97
2019-03-29T12:53:32.299Z,47.77
2019-03-29T12:56:01.980Z,42.97
2019-03-29T12:58:31.800Z,43.17
2019-03-29T13:01:01.450Z,40.90
2019-03-29T13:03:31.157Z,42.13
2019-03-29T13:06:00.838Z,44.20
2019-03-29T13:08:30.557Z,43.80
2019-03-29T13:11:00.260Z,45.13
2019-03-29T13:13:30.030Z,42.37
2019-03-29T13:15:59.726Z,42.70
2019-03-29T13:18:29.513Z,44.53
2019-03-29T13:20:59.282Z,38.03
2019-03-29T13:23:29.129Z,39.67
2019-03-29T13:25:58.885Z,41.63
2019-03-29T13:28:28.667Z,43.57
2019-03-29T13:30:58.494Z,40.70
2019-03-29T13:33:28.271Z,38.73
2019-03-29T13:35:58.048Z,39.63
2019-03-29T13:38:27.754Z,41.57
2019-03-29T13:40:57.434Z,45.93
2019-03-29T13:43:27.138Z,41.07
2019-03-29T13:45:56.927Z,39.53
2019-03-29T13:48:26.651Z,46.47
2019-03-29T13:50:59.299Z,45.03
2019-03-29T13:53:35.103Z,42.07
2019-03-29T13:56:04.856Z,39.87
2019-03-29T13:58:34.562Z,42.07
2019-03-29T14:01:04.331Z,46.00
2019-03-29T14:03:34.026Z,44.97
2019-03-29T14:06:03.713Z,42.80
2019-03-29T14:08:33.427Z,39.23
2019-03-29T14:11:03.113Z,39.70
2019-03-29T14:13:32.847Z,45.77
2019-03-29T14:16:02.601Z,44.30
2019-03-29T14:18:32.305Z,45.67
2019-03-29T14:21:02.065Z,40.20
2019-03-29T14:23:31.764Z,40.93
2019-03-29T14:26:01.542Z,40.37
2019-03-29T14:28:31.245Z,43.70
2019-03-29T14:31:00.938Z,45.15
2019-03-29T14:33:30.630Z,45.27
2019-03-29T14:36:00.390Z,43.53
2019-03-29T14:38:31.122Z,44.00
2019-03-29T14:41:00.815Z,43.10
2019-03-29T14:43:30.628Z,44.07
2019-03-29T14:46:00.322Z,45.40
2019-03-29T14:48:30.062Z,41.47
2019-03-29T14:50:59.753Z,42.53
2019-03-29T14:53:29.585Z,43.70
2019-03-29T14:55:59.594Z,46.00
2019-03-29T14:58:29.312Z,44.07
2019-03-29T15:00:59.075Z,47.77
2019-03-29T15:03:28.780Z,44.43
2019-03-29T15:06:01.604Z,48.20
2019-03-29T15:08:30.271Z,52.03
2019-03-29T15:11:00.029Z,47.43
2019-03-29T15:13:29.746Z,47.23
2019-03-29T15:15:59.436Z,49.93
2019-03-29T15:18:29.224Z,49.20
2019-03-29T15:20:58.914Z,51.03
2019-03-29T15:23:28.586Z,46.57
2019-03-29T15:25:58.301Z,52.67
2019-03-29T15:28:27.995Z,48.70
2019-03-29T15:30:57.703Z,49.53
2019-03-29T15:33:27.400Z,54.57
2019-03-29T15:35:57.101Z,57.97
2019-03-29T15:38:26.946Z,54.53
2019-03-29T15:40:56.748Z,54.13
2019-03-29T15:43:26.421Z,52.77
2019-03-29T15:45:56.153Z,54.97
2019-03-29T15:48:25.932Z,59.43
2019-03-29T15:50:55.719Z,56.40
2019-03-29T15:53:25.587Z,55.20
2019-03-29T15:55:55.993Z,59.37
2019-03-29T15:58:25.675Z,55.83
2019-03-29T16:00:55.465Z,56.70
2019-03-29T16:03:25.246Z,58.13
2019-03-29T16:05:54.960Z,56.47
2019-03-29T16:08:24.636Z,53.37
2019-03-29T16:10:54.419Z,52.97
2019-03-29T16:13:24.180Z,51.67
2019-03-29T16:15:54.134Z,54.97
2019-03-29T16:18:24.016Z,54.40
2019-03-29T16:20:55.391Z,53.33
2019-03-29T16:23:25.557Z,58.70
2019-03-29T16:25:55.350Z,54.23
2019-03-29T16:28:25.285Z,55.33
2019-03-29T16:30:55.433Z,53.33
2019-03-29T16:33:25.124Z,58.10
2019-03-29T16:35:54.824Z,58.77
2019-03-29T16:38:24.636Z,60.50
2019-03-29T16:40:54.640Z,60.77
2019-03-29T16:43:24.326Z,57.17
2019-03-29T16:45:54.106Z,61.80
2019-03-29T16:48:23.878Z,59.17
2019-03-29T16:50:53.656Z,58.20
2019-03-29T16:53:23.360Z,56.50
2019-03-29T16:55:53.067Z,62.93
2019-03-29T16:58:22.772Z,55.90
2019-03-29T17:00:52.539Z,65.17
2019-03-29T17:03:22.293Z,62.27
2019-03-29T17:05:52.100Z,63.20
2019-03-29T17:08:21.767Z,66.90
2019-03-29T17:10:52.176Z,61.53
2019-03-29T17:13:21.943Z,74.77
2019-03-29T17:16:01.589Z,68.27
2019-03-29T17:18:29.237Z,68.00
2019-03-29T17:20:54.627Z,70.60
2019-03-29T17:23:24.303Z,70.10
2019-03-29T17:25:54.010Z,68.80
2019-03-29T17:28:23.708Z,72.83
2019-03-29T17:30:55.055Z,72.33
2019-03-29T17:33:24.888Z,72.73
2019-03-29T17:35:54.600Z,73.57
2019-03-29T17:38:24.268Z,78.17
2019-03-29T17:40:54.044Z,75.17
2019-03-29T17:43:23.716Z,79.20
2019-03-29T17:45:53.443Z,77.40
2019-03-29T17:48:23.150Z,81.07
2019-03-29T17:50:52.850Z,82.30
2019-03-29T17:53:22.609Z,74.67
2019-03-29T17:55:52.313Z,85.50
2019-03-29T17:58:22.020Z,79.83
2019-03-29T18:00:51.687Z,80.30
2019-03-29T18:03:21.449Z,83.30
2019-03-29T18:05:51.216Z,78.27
2019-03-29T18:08:20.970Z,88.07
2019-03-29T18:10:50.700Z,80.13
2019-03-29T18:13:20.479Z,89.07
2019-03-29T18:15:50.159Z,82.47
2019-03-29T18:18:19.855Z,87.90
2019-03-29T18:20:49.553Z,82.33
2019-03-29T18:23:19.334Z,82.57
2019-03-29T18:25:49.075Z,86.67
2019-03-29T18:28:18.788Z,86.60
2019-03-29T18:30:48.451Z,84.77
2019-03-29T18:33:18.580Z,88.53
2019-03-29T18:35:48.270Z,91.10
2019-03-29T18:38:17.970Z,86.40
2019-03-29T18:40:47.714Z,89.23
2019-03-29T18:43:17.420Z,85.60
2019-03-29T18:45:47.141Z,89.27
2019-03-29T18:48:16.799Z,86.60
2019-03-29T18:50:46.478Z,86.73
2019-03-29T18:53:16.179Z,86.50
2019-03-29T18:55:45.870Z,92.13
2019-03-29T18:58:15.719Z,89.40
2019-03-29T19:00:45.463Z,93.23
2019-03-29T19:03:15.149Z,86.47
2019-03-29T19:05:44.906Z,81.60
2019-03-29T19:08:15.529Z,96.13
2019-03-29T19:10:45.275Z,90.40
2019-03-29T19:13:15.060Z,92.53
2019-03-29T19:15:44.821Z,92.53
2019-03-29T19:18:17.143Z,91.10
2019-03-29T19:20:46.999Z,88.03
2019-03-29T19:23:18.395Z,94.97
2019-03-29T19:25:48.256Z,86.83
2019-03-29T19:28:18.027Z,88.20
2019-03-29T19:30:48.079Z,91.00
2019-03-29T19:33:18.113Z,79.50
2019-03-29T19:35:51.540Z,85.70
2019-03-29T19:38:21.406Z,86.30
2019-03-29T19:40:51.851Z,91.77
2019-03-29T19:43:22.896Z,88.70
2019-03-29T19:45:53.155Z,84.27
2019-03-29T19:48:23.409Z,86.83
2019-03-29T19:50:53.343Z,95.17
2019-03-29T19:53:23.416Z,84.83
2019-03-29T19:55:53.180Z,97.33
2019-03-29T19:58:22.925Z,98.37
2019-03-29T20:00:53.108Z,98.23
2019-03-29T20:03:22.986Z,92.33
2019-03-29T20:05:52.703Z,103.37
2019-03-29T20:08:25.266Z,91.47
2019-03-29T20:10:56.705Z,95.33
2019-03-29T20:13:26.560Z,101.77
2019-03-29T20:16:07.522Z,90.03
2019-03-29T20:18:38.544Z,85.87
2019-03-29T20:21:08.590Z,93.33
2019-03-29T20:23:39.748Z,93.60
2019-03-29T20:26:09.937Z,93.23
2019-03-29T20:28:39.983Z,95.20
2019-03-29T20:31:09.770Z,97.07
2019-03-29T20:33:39.776Z,109.20
2019-03-29T20:36:10.318Z,90.43
2019-03-29T20:38:40.035Z,92.87
2019-03-29T20:41:09.874Z,83.43
2019-03-29T20:43:39.802Z,83.70
2019-03-29T20:46:09.836Z,94.70
2019-03-29T20:48:39.666Z,92.07
2019-03-29T20:51:09.661Z,91.07
2019-03-29T20:53:40.057Z,86.23
2019-03-29T20:56:14.474Z,96.27
2019-03-29T20:58:44.488Z,90.00
2019-03-29T21:01:18.874Z,90.50
2019-03-29T21:03:48.856Z,90.43
2019-03-29T21:06:18.611Z,84.23
2019-03-29T21:08:48.413Z,82.07
2019-03-29T21:11:19.452Z,89.03
2019-03-29T21:13:52.541Z,96.07
2019-03-29T21:16:22.462Z,85.43
2019-03-29T21:18:54.248Z,93.77
2019-03-29T21:21:23.972Z,93.57
2019-03-29T21:23:55.481Z,91.23
2019-03-29T21:26:25.396Z,89.13
2019-03-29T21:28:55.537Z,87.40
2019-03-29T21:31:25.350Z,87.63
2019-03-29T21:33:55.047Z,97.93
2019-03-29T21:36:25.647Z,276.53
2019-03-29T21:38:55.794Z,101.27
2019-03-29T21:41:26.387Z,102.90
2019-03-29T21:43:56.116Z,109.03
2019-03-29T21:46:25.907Z,105.53
2019-03-29T21:48:55.738Z,93.97
2019-03-29T21:51:25.392Z,102.03
2019-03-29T21:53:55.225Z,93.10
2019-03-29T21:56:25.060Z,93.50
2019-03-29T21:58:56.305Z,91.20
2019-03-29T22:01:26.139Z,90.37
2019-03-29T22:03:55.807Z,84.17
2019-03-29T22:06:25.511Z,96.23
2019-03-29T22:08:55.257Z,87.67
2019-03-29T22:11:25.123Z,87.73
2019-03-29T22:13:54.823Z,97.40
2019-03-29T22:16:24.535Z,86.67
2019-03-29T22:18:54.305Z,92.60
2019-03-29T22:21:24.058Z,90.73
2019-03-29T22:23:53.744Z,93.00
2019-03-29T22:26:23.470Z,90.03
2019-03-29T22:28:53.148Z,85.73
2019-03-29T22:31:22.894Z,97.60
2019-03-29T22:33:52.590Z,88.87
2019-03-29T22:36:22.304Z,84.00
2019-03-29T22:38:52.010Z,93.63
2019-03-29T22:41:21.833Z,84.80
2019-03-29T22:43:53.018Z,90.43
2019-03-29T22:46:22.689Z,94.23
2019-03-29T22:48:53.517Z,92.60
2019-03-29T22:51:23.272Z,91.90
2019-03-29T22:53:53.062Z,96.43
2019-03-29T22:56:24.376Z,90.37
2019-03-29T22:58:54.085Z,94.30
2019-03-29T23:01:23.988Z,110.63
2019-03-29T23:03:53.756Z,91.73
2019-03-29T23:06:23.490Z,88.00
2019-03-29T23:08:53.231Z,95.73
2019-03-29T23:11:22.938Z,98.40
2019-03-29T23:13:52.726Z,103.80
2019-03-29T23:16:22.478Z,99.33
2019-03-29T23:19:05.587Z,91.73
2019-03-29T23:21:23.567Z,87.63
2019-03-29T23:23:53.285Z,85.67
2019-03-29T23:26:22.971Z,88.17
2019-03-29T23:28:52.737Z,87.87
2019-03-29T23:31:22.485Z,89.10
2019-03-29T23:33:52.191Z,86.37
2019-03-29T23:36:21.897Z,89.53
2019-03-29T23:38:51.639Z,94.13
2019-03-29T23:41:21.383Z,91.17
2019-03-29T23:43:51.096Z,85.43
2019-03-29T23:46:20.863Z,77.77
2019-03-29T23:48:50.580Z,87.90
2019-03-29T23:51:20.262Z,85.07
2019-03-29T23:53:50.133Z,85.30
2019-03-29T23:56:19.800Z,83.60
2019-03-29T23:58:49.503Z,78.90
